sensor_id;sensor_type;location;lat;lon;timestamp;temperature;humidity
38480;DHT22;62333;51.980;5.934;2022-12-18T00:01:33;-1.00;90.30
38480;DHT22;62333;51.980;5.934;2022-12-18T00:04:01;-1.10;90.20
38480;DHT22;62333;51.980;5.934;2022-12-18T00:06:28;-1.10;90.20
38480;DHT22;62333;51.980;5.934;2022-12-18T00:08:56;-1.10;90.20
38480;DHT22;62333;51.980;5.934;2022-12-18T00:11:24;-1.10;90.10
38480;DHT22;62333;51.980;5.934;2022-12-18T00:13:50;-1.10;90.10
38480;DHT22;62333;51.980;5.934;2022-12-18T00:16:19;-1.10;90.10
38480;DHT22;62333;51.980;5.934;2022-12-18T00:18:50;-1.20;90.10
38480;DHT22;62333;51.980;5.934;2022-12-18T00:21:16;-1.20;90.10
38480;DHT22;62333;51.980;5.934;2022-12-18T00:23:43;-1.20;90.10
38480;DHT22;62333;51.980;5.934;2022-12-18T00:26:18;-1.30;90.00
38480;DHT22;62333;51.980;5.934;2022-12-18T00:28:45;-1.30;90.00
38480;DHT22;62333;51.980;5.934;2022-12-18T00:31:14;-1.40;90.00
38480;DHT22;62333;51.980;5.934;2022-12-18T00:33:40;-1.40;90.00
38480;DHT22;62333;51.980;5.934;2022-12-18T00:36:10;-1.40;90.00
38480;DHT22;62333;51.980;5.934;2022-12-18T00:38:36;-1.50;90.10
38480;DHT22;62333;51.980;5.934;2022-12-18T00:41:03;-1.50;90.00
38480;DHT22;62333;51.980;5.934;2022-12-18T00:43:28;-1.60;90.00
38480;DHT22;62333;51.980;5.934;2022-12-18T00:45:54;-1.60;90.00
38480;DHT22;62333;51.980;5.934;2022-12-18T00:48:20;-1.60;90.00
38480;DHT22;62333;51.980;5.934;2022-12-18T00:50:48;-1.60;90.10
38480;DHT22;62333;51.980;5.934;2022-12-18T00:53:14;-1.60;90.00
38480;DHT22;62333;51.980;5.934;2022-12-18T00:55:40;-1.70;90.00
38480;DHT22;62333;51.980;5.934;2022-12-18T00:58:05;-1.60;90.00
38480;DHT22;62333;51.980;5.934;2022-12-18T01:00:31;-1.70;90.00
38480;DHT22;62333;51.980;5.934;2022-12-18T01:02:57;-1.70;90.00
38480;DHT22;62333;51.980;5.934;2022-12-18T01:05:22;-1.70;89.90
38480;DHT22;62333;51.980;5.934;2022-12-18T01:07:48;-1.60;90.00
38480;DHT22;62333;51.980;5.934;2022-12-18T01:10:14;-1.70;89.80
38480;DHT22;62333;51.980;5.934;2022-12-18T01:12:39;-1.70;89.80
38480;DHT22;62333;51.980;5.934;2022-12-18T01:15:06;-1.70;89.80
38480;DHT22;62333;51.980;5.934;2022-12-18T01:17:33;-1.70;89.70
38480;DHT22;62333;51.980;5.934;2022-12-18T01:19:58;-1.60;89.70
38480;DHT22;62333;51.980;5.934;2022-12-18T01:22:24;-1.60;89.70
38480;DHT22;62333;51.980;5.934;2022-12-18T01:24:50;-1.70;89.50
38480;DHT22;62333;51.980;5.934;2022-12-18T01:27:15;-1.70;89.50
38480;DHT22;62333;51.980;5.934;2022-12-18T01:29:41;-1.70;89.50
38480;DHT22;62333;51.980;5.934;2022-12-18T01:32:08;-1.70;89.50
38480;DHT22;62333;51.980;5.934;2022-12-18T01:34:35;-1.70;89.50
38480;DHT22;62333;51.980;5.934;2022-12-18T01:37:06;-1.80;89.40
38480;DHT22;62333;51.980;5.934;2022-12-18T01:39:32;-1.80;89.40
38480;DHT22;62333;51.980;5.934;2022-12-18T01:41:59;-1.70;89.40
38480;DHT22;62333;51.980;5.934;2022-12-18T01:47:18;-1.70;89.30
38480;DHT22;62333;51.980;5.934;2022-12-18T01:49:44;-1.70;89.30
38480;DHT22;62333;51.980;5.934;2022-12-18T01:52:09;-1.70;89.30
38480;DHT22;62333;51.980;5.934;2022-12-18T01:54:35;-1.70;89.20
38480;DHT22;62333;51.980;5.934;2022-12-18T01:57:01;-1.70;89.10
38480;DHT22;62333;51.980;5.934;2022-12-18T01:59:27;-1.70;89.20
38480;DHT22;62333;51.980;5.934;2022-12-18T02:01:56;-1.70;89.10
38480;DHT22;62333;51.980;5.934;2022-12-18T02:04:25;-1.70;89.00
38480;DHT22;62333;51.980;5.934;2022-12-18T02:09:33;-1.70;88.90
38480;DHT22;62333;51.980;5.934;2022-12-18T02:12:22;-1.70;88.90
38480;DHT22;62333;51.980;5.934;2022-12-18T02:14:58;-1.80;88.90
38480;DHT22;62333;51.980;5.934;2022-12-18T02:18:05;-1.80;88.90
38480;DHT22;62333;51.980;5.934;2022-12-18T02:20:36;-1.80;88.80
38480;DHT22;62333;51.980;5.934;2022-12-18T02:28:47;-1.80;88.70
38480;DHT22;62333;51.980;5.934;2022-12-18T02:31:19;-1.80;88.70
38480;DHT22;62333;51.980;5.934;2022-12-18T02:33:47;-1.80;88.70
38480;DHT22;62333;51.980;5.934;2022-12-18T02:36:15;-1.90;88.60
38480;DHT22;62333;51.980;5.934;2022-12-18T02:38:42;-1.80;88.70
38480;DHT22;62333;51.980;5.934;2022-12-18T02:41:08;-1.90;88.70
38480;DHT22;62333;51.980;5.934;2022-12-18T02:43:34;-1.90;88.70
38480;DHT22;62333;51.980;5.934;2022-12-18T02:46:20;-1.90;88.70
38480;DHT22;62333;51.980;5.934;2022-12-18T02:48:47;-1.90;88.70
38480;DHT22;62333;51.980;5.934;2022-12-18T02:51:25;-1.90;88.60
38480;DHT22;62333;51.980;5.934;2022-12-18T02:54:08;-1.90;88.60
38480;DHT22;62333;51.980;5.934;2022-12-18T02:56:38;-1.90;89.10
38480;DHT22;62333;51.980;5.934;2022-12-18T02:59:13;-1.90;88.40
38480;DHT22;62333;51.980;5.934;2022-12-18T03:01:52;-1.90;88.40
38480;DHT22;62333;51.980;5.934;2022-12-18T03:04:30;-1.90;88.30
38480;DHT22;62333;51.980;5.934;2022-12-18T03:07:01;-1.90;88.30
38480;DHT22;62333;51.980;5.934;2022-12-18T03:09:32;-1.90;88.30
38480;DHT22;62333;51.980;5.934;2022-12-18T03:12:07;-1.90;88.20
38480;DHT22;62333;51.980;5.934;2022-12-18T03:15:21;-2.00;88.20
38480;DHT22;62333;51.980;5.934;2022-12-18T03:17:54;-2.00;88.10
38480;DHT22;62333;51.980;5.934;2022-12-18T03:20:22;-2.00;88.10
38480;DHT22;62333;51.980;5.934;2022-12-18T03:22:53;-2.00;88.00
38480;DHT22;62333;51.980;5.934;2022-12-18T03:25:21;-2.00;88.00
38480;DHT22;62333;51.980;5.934;2022-12-18T03:27:51;-2.00;88.00
38480;DHT22;62333;51.980;5.934;2022-12-18T03:30:20;-2.00;88.00
38480;DHT22;62333;51.980;5.934;2022-12-18T03:33:01;-2.10;88.00
38480;DHT22;62333;51.980;5.934;2022-12-18T03:35:34;-2.10;88.00
38480;DHT22;62333;51.980;5.934;2022-12-18T03:38:00;-2.10;87.90
38480;DHT22;62333;51.980;5.934;2022-12-18T03:40:45;-2.10;87.90
38480;DHT22;62333;51.980;5.934;2022-12-18T03:45:56;-2.20;87.80
38480;DHT22;62333;51.980;5.934;2022-12-18T03:48:32;-2.20;87.80
38480;DHT22;62333;51.980;5.934;2022-12-18T03:53:58;-2.20;87.80
38480;DHT22;62333;51.980;5.934;2022-12-18T03:56:28;-2.20;87.90
38480;DHT22;62333;51.980;5.934;2022-12-18T03:58:55;-2.20;87.90
38480;DHT22;62333;51.980;5.934;2022-12-18T04:02:08;-2.20;87.90
38480;DHT22;62333;51.980;5.934;2022-12-18T04:04:16;-2.20;88.00
38480;DHT22;62333;51.980;5.934;2022-12-18T04:06:43;-2.20;87.90
38480;DHT22;62333;51.980;5.934;2022-12-18T04:09:10;-2.20;87.90
38480;DHT22;62333;51.980;5.934;2022-12-18T04:11:36;-2.20;87.90
38480;DHT22;62333;51.980;5.934;2022-12-18T04:14:02;-2.20;87.80
38480;DHT22;62333;51.980;5.934;2022-12-18T04:16:28;-2.20;87.80
38480;DHT22;62333;51.980;5.934;2022-12-18T04:18:54;-2.10;87.80
38480;DHT22;62333;51.980;5.934;2022-12-18T04:21:20;-2.20;87.80
38480;DHT22;62333;51.980;5.934;2022-12-18T04:23:46;-2.20;87.70
38480;DHT22;62333;51.980;5.934;2022-12-18T04:26:12;-2.20;87.70
38480;DHT22;62333;51.980;5.934;2022-12-18T04:28:37;-2.10;87.70
38480;DHT22;62333;51.980;5.934;2022-12-18T04:31:03;-2.10;87.70
38480;DHT22;62333;51.980;5.934;2022-12-18T04:33:29;-2.10;87.60
38480;DHT22;62333;51.980;5.934;2022-12-18T04:35:54;-2.20;87.50
38480;DHT22;62333;51.980;5.934;2022-12-18T04:38:20;-2.20;87.60
38480;DHT22;62333;51.980;5.934;2022-12-18T04:40:46;-2.20;87.60
38480;DHT22;62333;51.980;5.934;2022-12-18T04:43:11;-2.20;87.50
38480;DHT22;62333;51.980;5.934;2022-12-18T04:45:37;-2.20;87.50
38480;DHT22;62333;51.980;5.934;2022-12-18T04:48:03;-2.20;87.50
38480;DHT22;62333;51.980;5.934;2022-12-18T04:50:30;-2.10;87.50
38480;DHT22;62333;51.980;5.934;2022-12-18T04:52:56;-2.20;87.50
38480;DHT22;62333;51.980;5.934;2022-12-18T04:55:21;-2.20;87.40
38480;DHT22;62333;51.980;5.934;2022-12-18T04:57:48;-2.20;87.40
38480;DHT22;62333;51.980;5.934;2022-12-18T05:00:14;-2.20;87.40
38480;DHT22;62333;51.980;5.934;2022-12-18T05:02:39;-2.20;87.30
38480;DHT22;62333;51.980;5.934;2022-12-18T05:05:07;-2.20;87.30
38480;DHT22;62333;51.980;5.934;2022-12-18T05:07:32;-2.20;87.30
38480;DHT22;62333;51.980;5.934;2022-12-18T05:10:01;-2.20;87.20
38480;DHT22;62333;51.980;5.934;2022-12-18T05:12:26;-2.20;87.20
38480;DHT22;62333;51.980;5.934;2022-12-18T05:14:52;-2.20;87.20
38480;DHT22;62333;51.980;5.934;2022-12-18T05:17:18;-2.20;87.20
38480;DHT22;62333;51.980;5.934;2022-12-18T05:19:43;-2.20;87.20
38480;DHT22;62333;51.980;5.934;2022-12-18T05:22:09;-2.20;87.20
38480;DHT22;62333;51.980;5.934;2022-12-18T05:24:35;-2.20;87.20
38480;DHT22;62333;51.980;5.934;2022-12-18T05:27:01;-2.20;87.10
38480;DHT22;62333;51.980;5.934;2022-12-18T05:29:27;-2.20;87.10
38480;DHT22;62333;51.980;5.934;2022-12-18T05:31:53;-2.20;87.10
38480;DHT22;62333;51.980;5.934;2022-12-18T05:34:21;-2.20;87.10
38480;DHT22;62333;51.980;5.934;2022-12-18T05:36:47;-2.30;87.10
38480;DHT22;62333;51.980;5.934;2022-12-18T05:39:12;-2.20;87.10
38480;DHT22;62333;51.980;5.934;2022-12-18T05:41:38;-2.20;87.20
38480;DHT22;62333;51.980;5.934;2022-12-18T05:44:04;-2.30;87.10
38480;DHT22;62333;51.980;5.934;2022-12-18T05:46:30;-2.30;87.20
38480;DHT22;62333;51.980;5.934;2022-12-18T05:48:59;-2.30;87.10
38480;DHT22;62333;51.980;5.934;2022-12-18T05:51:25;-2.30;87.20
38480;DHT22;62333;51.980;5.934;2022-12-18T05:53:51;-2.30;87.10
38480;DHT22;62333;51.980;5.934;2022-12-18T05:56:19;-2.30;87.10
38480;DHT22;62333;51.980;5.934;2022-12-18T05:58:46;-2.30;87.40
38480;DHT22;62333;51.980;5.934;2022-12-18T06:01:15;-2.30;87.10
38480;DHT22;62333;51.980;5.934;2022-12-18T06:03:41;-2.30;87.00
38480;DHT22;62333;51.980;5.934;2022-12-18T06:06:22;-2.30;87.00
38480;DHT22;62333;51.980;5.934;2022-12-18T06:08:49;-2.40;87.00
38480;DHT22;62333;51.980;5.934;2022-12-18T06:11:20;-2.30;87.00
38480;DHT22;62333;51.980;5.934;2022-12-18T06:13:46;-2.30;87.00
38480;DHT22;62333;51.980;5.934;2022-12-18T06:16:12;-2.30;87.00
38480;DHT22;62333;51.980;5.934;2022-12-18T06:18:38;-2.30;87.00
38480;DHT22;62333;51.980;5.934;2022-12-18T06:21:03;-2.30;87.00
38480;DHT22;62333;51.980;5.934;2022-12-18T06:23:29;-2.30;87.00
38480;DHT22;62333;51.980;5.934;2022-12-18T06:25:55;-2.30;87.30
38480;DHT22;62333;51.980;5.934;2022-12-18T06:28:21;-2.30;87.00
38480;DHT22;62333;51.980;5.934;2022-12-18T06:30:48;-2.30;87.00
38480;DHT22;62333;51.980;5.934;2022-12-18T06:33:14;-2.30;86.90
38480;DHT22;62333;51.980;5.934;2022-12-18T06:35:40;-2.30;86.90
38480;DHT22;62333;51.980;5.934;2022-12-18T06:38:06;-2.20;86.90
38480;DHT22;62333;51.980;5.934;2022-12-18T06:40:32;-2.30;86.90
38480;DHT22;62333;51.980;5.934;2022-12-18T06:42:58;-2.30;86.90
38480;DHT22;62333;51.980;5.934;2022-12-18T06:45:24;-2.30;86.90
38480;DHT22;62333;51.980;5.934;2022-12-18T06:47:50;-2.30;86.90
38480;DHT22;62333;51.980;5.934;2022-12-18T06:50:15;-2.30;86.90
38480;DHT22;62333;51.980;5.934;2022-12-18T06:52:41;-2.30;86.90
38480;DHT22;62333;51.980;5.934;2022-12-18T06:55:09;-2.30;87.00
38480;DHT22;62333;51.980;5.934;2022-12-18T06:57:36;-2.30;87.10
38480;DHT22;62333;51.980;5.934;2022-12-18T07:00:03;-2.30;87.70
38480;DHT22;62333;51.980;5.934;2022-12-18T07:02:29;-2.30;87.10
38480;DHT22;62333;51.980;5.934;2022-12-18T07:04:55;-2.30;87.10
38480;DHT22;62333;51.980;5.934;2022-12-18T07:07:21;-2.30;87.10
38480;DHT22;62333;51.980;5.934;2022-12-18T07:09:46;-2.30;87.10
38480;DHT22;62333;51.980;5.934;2022-12-18T07:12:12;-2.30;87.10
38480;DHT22;62333;51.980;5.934;2022-12-18T07:14:38;-2.30;87.10
38480;DHT22;62333;51.980;5.934;2022-12-18T07:17:03;-2.30;87.10
38480;DHT22;62333;51.980;5.934;2022-12-18T07:19:29;-2.30;87.10
38480;DHT22;62333;51.980;5.934;2022-12-18T07:21:55;-2.30;87.10
38480;DHT22;62333;51.980;5.934;2022-12-18T07:24:21;-2.30;87.10
38480;DHT22;62333;51.980;5.934;2022-12-18T07:26:47;-2.30;87.10
38480;DHT22;62333;51.980;5.934;2022-12-18T07:29:12;-2.30;87.30
38480;DHT22;62333;51.980;5.934;2022-12-18T07:31:38;-2.30;87.40
38480;DHT22;62333;51.980;5.934;2022-12-18T07:34:04;-2.30;87.50
38480;DHT22;62333;51.980;5.934;2022-12-18T07:36:30;-2.20;87.60
38480;DHT22;62333;51.980;5.934;2022-12-18T07:38:55;-2.30;87.60
38480;DHT22;62333;51.980;5.934;2022-12-18T07:41:21;-2.30;87.60
38480;DHT22;62333;51.980;5.934;2022-12-18T07:43:47;-2.30;87.70
38480;DHT22;62333;51.980;5.934;2022-12-18T07:46:14;-2.20;87.80
38480;DHT22;62333;51.980;5.934;2022-12-18T07:48:41;-2.30;87.80
38480;DHT22;62333;51.980;5.934;2022-12-18T07:51:08;-2.20;87.80
38480;DHT22;62333;51.980;5.934;2022-12-18T07:53:35;-2.20;87.80
38480;DHT22;62333;51.980;5.934;2022-12-18T07:56:04;-2.20;87.70
38480;DHT22;62333;51.980;5.934;2022-12-18T07:58:30;-2.20;87.70
38480;DHT22;62333;51.980;5.934;2022-12-18T08:01:06;-2.20;87.70
38480;DHT22;62333;51.980;5.934;2022-12-18T08:03:32;-2.10;87.80
38480;DHT22;62333;51.980;5.934;2022-12-18T08:05:59;-2.10;87.80
38480;DHT22;62333;51.980;5.934;2022-12-18T08:08:25;-2.10;87.70
38480;DHT22;62333;51.980;5.934;2022-12-18T08:10:51;-2.00;87.80
38480;DHT22;62333;51.980;5.934;2022-12-18T08:13:16;-2.00;87.70
38480;DHT22;62333;51.980;5.934;2022-12-18T08:15:42;-1.90;87.70
38480;DHT22;62333;51.980;5.934;2022-12-18T08:18:08;-2.00;87.60
38480;DHT22;62333;51.980;5.934;2022-12-18T08:20:33;-1.90;87.60
38480;DHT22;62333;51.980;5.934;2022-12-18T08:22:59;-1.80;87.70
38480;DHT22;62333;51.980;5.934;2022-12-18T08:25:24;-1.80;87.60
38480;DHT22;62333;51.980;5.934;2022-12-18T08:27:50;-1.70;87.60
38480;DHT22;62333;51.980;5.934;2022-12-18T08:30:16;-1.70;87.50
38480;DHT22;62333;51.980;5.934;2022-12-18T08:32:41;-1.60;87.50
38480;DHT22;62333;51.980;5.934;2022-12-18T08:35:07;-1.60;87.30
38480;DHT22;62333;51.980;5.934;2022-12-18T08:37:33;-1.50;87.30
38480;DHT22;62333;51.980;5.934;2022-12-18T08:40:00;-1.40;87.20
38480;DHT22;62333;51.980;5.934;2022-12-18T08:42:25;-1.40;87.10
38480;DHT22;62333;51.980;5.934;2022-12-18T08:45:10;-1.30;86.90
38480;DHT22;62333;51.980;5.934;2022-12-18T08:47:35;-1.20;86.90
38480;DHT22;62333;51.980;5.934;2022-12-18T08:50:01;-1.10;86.80
38480;DHT22;62333;51.980;5.934;2022-12-18T08:52:27;-1.10;86.70
38480;DHT22;62333;51.980;5.934;2022-12-18T08:54:53;-1.00;86.70
38480;DHT22;62333;51.980;5.934;2022-12-18T08:57:19;-1.00;86.60
38480;DHT22;62333;51.980;5.934;2022-12-18T08:59:44;-0.90;86.50
38480;DHT22;62333;51.980;5.934;2022-12-18T09:02:11;-0.90;86.50
38480;DHT22;62333;51.980;5.934;2022-12-18T09:04:36;-0.80;86.40
38480;DHT22;62333;51.980;5.934;2022-12-18T09:07:02;-0.80;86.20
38480;DHT22;62333;51.980;5.934;2022-12-18T09:09:28;-0.70;86.20
38480;DHT22;62333;51.980;5.934;2022-12-18T09:11:54;-0.70;86.20
38480;DHT22;62333;51.980;5.934;2022-12-18T09:14:19;-0.60;86.30
38480;DHT22;62333;51.980;5.934;2022-12-18T09:16:45;-0.50;86.50
38480;DHT22;62333;51.980;5.934;2022-12-18T09:19:11;-0.50;86.10
38480;DHT22;62333;51.980;5.934;2022-12-18T09:21:36;-0.30;86.00
38480;DHT22;62333;51.980;5.934;2022-12-18T09:24:03;-0.30;85.90
38480;DHT22;62333;51.980;5.934;2022-12-18T09:26:29;-0.20;85.70
38480;DHT22;62333;51.980;5.934;2022-12-18T09:28:55;-0.10;85.60
38480;DHT22;62333;51.980;5.934;2022-12-18T09:31:23;0.00;85.40
38480;DHT22;62333;51.980;5.934;2022-12-18T09:33:49;0.00;84.90
38480;DHT22;62333;51.980;5.934;2022-12-18T09:36:16;0.10;84.50
38480;DHT22;62333;51.980;5.934;2022-12-18T09:38:42;0.10;84.10
38480;DHT22;62333;51.980;5.934;2022-12-18T09:44:14;0.20;83.60
38480;DHT22;62333;51.980;5.934;2022-12-18T09:49:28;0.30;83.50
38480;DHT22;62333;51.980;5.934;2022-12-18T09:52:08;0.30;83.40
38480;DHT22;62333;51.980;5.934;2022-12-18T09:54:41;0.30;83.00
38480;DHT22;62333;51.980;5.934;2022-12-18T09:57:29;0.40;83.00
38480;DHT22;62333;51.980;5.934;2022-12-18T10:00:14;0.40;83.20
38480;DHT22;62333;51.980;5.934;2022-12-18T10:02:40;0.50;82.90
38480;DHT22;62333;51.980;5.934;2022-12-18T10:07:42;0.50;82.80
38480;DHT22;62333;51.980;5.934;2022-12-18T10:12:59;0.50;82.50
38480;DHT22;62333;51.980;5.934;2022-12-18T10:16:12;0.50;82.40
38480;DHT22;62333;51.980;5.934;2022-12-18T10:21:48;0.50;82.30
38480;DHT22;62333;51.980;5.934;2022-12-18T10:27:07;0.60;82.10
38480;DHT22;62333;51.980;5.934;2022-12-18T10:29:34;0.60;82.10
38480;DHT22;62333;51.980;5.934;2022-12-18T10:31:59;0.70;82.10
38480;DHT22;62333;51.980;5.934;2022-12-18T10:34:25;0.70;82.10
38480;DHT22;62333;51.980;5.934;2022-12-18T10:36:51;0.70;82.00
38480;DHT22;62333;51.980;5.934;2022-12-18T10:39:19;0.70;81.90
38480;DHT22;62333;51.980;5.934;2022-12-18T10:41:45;0.80;81.90
38480;DHT22;62333;51.980;5.934;2022-12-18T10:44:19;0.80;82.00
38480;DHT22;62333;51.980;5.934;2022-12-18T10:46:50;0.80;81.80
38480;DHT22;62333;51.980;5.934;2022-12-18T10:49:27;0.80;81.60
38480;DHT22;62333;51.980;5.934;2022-12-18T10:52:21;0.90;81.50
38480;DHT22;62333;51.980;5.934;2022-12-18T10:54:52;0.90;81.20
38480;DHT22;62333;51.980;5.934;2022-12-18T10:57:33;1.00;81.10
38480;DHT22;62333;51.980;5.934;2022-12-18T11:00:21;0.90;80.70
38480;DHT22;62333;51.980;5.934;2022-12-18T11:02:47;1.00;80.40
38480;DHT22;62333;51.980;5.934;2022-12-18T11:05:33;1.00;80.70
38480;DHT22;62333;51.980;5.934;2022-12-18T11:08:00;1.00;80.20
38480;DHT22;62333;51.980;5.934;2022-12-18T11:10:32;1.00;80.40
38480;DHT22;62333;51.980;5.934;2022-12-18T11:13:20;1.00;80.20
38480;DHT22;62333;51.980;5.934;2022-12-18T11:15:46;1.10;79.80
38480;DHT22;62333;51.980;5.934;2022-12-18T11:18:41;1.10;79.30
38480;DHT22;62333;51.980;5.934;2022-12-18T11:21:09;1.10;79.90
38480;DHT22;62333;51.980;5.934;2022-12-18T11:23:49;1.10;78.70
38480;DHT22;62333;51.980;5.934;2022-12-18T11:26:16;1.00;78.70
38480;DHT22;62333;51.980;5.934;2022-12-18T11:34:11;1.10;78.50
38480;DHT22;62333;51.980;5.934;2022-12-18T11:36:45;1.20;78.60
38480;DHT22;62333;51.980;5.934;2022-12-18T11:41:54;1.20;78.00
38480;DHT22;62333;51.980;5.934;2022-12-18T11:50:02;1.30;77.90
38480;DHT22;62333;51.980;5.934;2022-12-18T11:52:38;1.30;77.80
38480;DHT22;62333;51.980;5.934;2022-12-18T11:55:14;1.40;77.90
38480;DHT22;62333;51.980;5.934;2022-12-18T12:01:01;1.40;77.40
38480;DHT22;62333;51.980;5.934;2022-12-18T12:03:58;1.50;77.00
38480;DHT22;62333;51.980;5.934;2022-12-18T12:15:03;1.60;77.00
38480;DHT22;62333;51.980;5.934;2022-12-18T12:23:05;1.60;76.40
38480;DHT22;62333;51.980;5.934;2022-12-18T12:26:07;1.70;76.50
38480;DHT22;62333;51.980;5.934;2022-12-18T12:28:49;1.70;76.30
38480;DHT22;62333;51.980;5.934;2022-12-18T12:34:05;1.70;75.50
38480;DHT22;62333;51.980;5.934;2022-12-18T12:39:31;1.80;75.50
38480;DHT22;62333;51.980;5.934;2022-12-18T12:41:58;1.80;75.30
38480;DHT22;62333;51.980;5.934;2022-12-18T12:44:48;1.90;75.30
38480;DHT22;62333;51.980;5.934;2022-12-18T12:47:41;1.80;75.00
38480;DHT22;62333;51.980;5.934;2022-12-18T12:50:15;1.90;75.10
38480;DHT22;62333;51.980;5.934;2022-12-18T12:52:47;1.90;74.80
38480;DHT22;62333;51.980;5.934;2022-12-18T12:55:19;1.90;74.80
38480;DHT22;62333;51.980;5.934;2022-12-18T12:58:29;1.90;74.60
38480;DHT22;62333;51.980;5.934;2022-12-18T13:01:12;1.90;74.60
38480;DHT22;62333;51.980;5.934;2022-12-18T13:06:13;1.90;74.10
38480;DHT22;62333;51.980;5.934;2022-12-18T13:08:59;1.90;74.30
38480;DHT22;62333;51.980;5.934;2022-12-18T13:11:51;1.90;74.20
38480;DHT22;62333;51.980;5.934;2022-12-18T13:14:37;1.90;74.40
38480;DHT22;62333;51.980;5.934;2022-12-18T13:19:49;2.00;74.00
38480;DHT22;62333;51.980;5.934;2022-12-18T13:22:23;2.00;73.80
38480;DHT22;62333;51.980;5.934;2022-12-18T13:24:49;1.90;73.80
38480;DHT22;62333;51.980;5.934;2022-12-18T13:30:45;1.90;73.40
38480;DHT22;62333;51.980;5.934;2022-12-18T13:43:53;1.90;73.20
38480;DHT22;62333;51.980;5.934;2022-12-18T13:46:50;2.00;73.40
38480;DHT22;62333;51.980;5.934;2022-12-18T13:51:51;2.00;73.00
38480;DHT22;62333;51.980;5.934;2022-12-18T13:54:33;2.00;72.90
38480;DHT22;62333;51.980;5.934;2022-12-18T13:57:01;2.00;72.80
38480;DHT22;62333;51.980;5.934;2022-12-18T13:59:40;2.00;73.00
38480;DHT22;62333;51.980;5.934;2022-12-18T14:02:14;2.00;72.70
38480;DHT22;62333;51.980;5.934;2022-12-18T14:04:40;2.00;72.60
38480;DHT22;62333;51.980;5.934;2022-12-18T14:07:10;2.00;72.60
38480;DHT22;62333;51.980;5.934;2022-12-18T14:09:45;2.00;72.70
38480;DHT22;62333;51.980;5.934;2022-12-18T14:12:24;2.00;72.80
38480;DHT22;62333;51.980;5.934;2022-12-18T14:15:46;2.10;72.90
38480;DHT22;62333;51.980;5.934;2022-12-18T14:20:52;2.10;72.90
38480;DHT22;62333;51.980;5.934;2022-12-18T14:23:39;2.10;72.80
38480;DHT22;62333;51.980;5.934;2022-12-18T14:26:29;2.10;72.80
38480;DHT22;62333;51.980;5.934;2022-12-18T14:28:59;2.20;72.90
38480;DHT22;62333;51.980;5.934;2022-12-18T14:31:30;2.10;73.30
38480;DHT22;62333;51.980;5.934;2022-12-18T14:33:56;2.10;72.80
38480;DHT22;62333;51.980;5.934;2022-12-18T14:36:24;2.10;72.70
38480;DHT22;62333;51.980;5.934;2022-12-18T14:38:52;2.10;72.80
38480;DHT22;62333;51.980;5.934;2022-12-18T14:41:19;2.20;73.00
38480;DHT22;62333;51.980;5.934;2022-12-18T14:43:48;2.20;72.90
38480;DHT22;62333;51.980;5.934;2022-12-18T14:46:36;2.20;72.90
38480;DHT22;62333;51.980;5.934;2022-12-18T14:49:24;2.20;73.00
38480;DHT22;62333;51.980;5.934;2022-12-18T14:51:59;2.20;73.20
38480;DHT22;62333;51.980;5.934;2022-12-18T14:54:28;2.20;73.30
38480;DHT22;62333;51.980;5.934;2022-12-18T14:57:00;2.20;73.40
38480;DHT22;62333;51.980;5.934;2022-12-18T14:59:27;2.20;73.30
38480;DHT22;62333;51.980;5.934;2022-12-18T15:02:15;2.20;73.40
38480;DHT22;62333;51.980;5.934;2022-12-18T15:04:44;2.20;73.50
38480;DHT22;62333;51.980;5.934;2022-12-18T15:07:19;2.20;73.00
38480;DHT22;62333;51.980;5.934;2022-12-18T15:20:24;2.20;72.60
38480;DHT22;62333;51.980;5.934;2022-12-18T15:22:50;2.10;72.60
38480;DHT22;62333;51.980;5.934;2022-12-18T15:25:42;2.10;72.60
38480;DHT22;62333;51.980;5.934;2022-12-18T15:28:26;2.10;72.70
38480;DHT22;62333;51.980;5.934;2022-12-18T15:31:21;2.10;72.60
38480;DHT22;62333;51.980;5.934;2022-12-18T15:36:21;2.20;72.70
38480;DHT22;62333;51.980;5.934;2022-12-18T15:38:52;2.10;72.50
38480;DHT22;62333;51.980;5.934;2022-12-18T15:41:20;2.10;72.50
38480;DHT22;62333;51.980;5.934;2022-12-18T15:43:48;2.10;72.50
38480;DHT22;62333;51.980;5.934;2022-12-18T15:46:16;2.10;72.70
38480;DHT22;62333;51.980;5.934;2022-12-18T15:48:50;2.10;72.50
38480;DHT22;62333;51.980;5.934;2022-12-18T15:51:26;2.10;72.30
38480;DHT22;62333;51.980;5.934;2022-12-18T15:53:55;2.10;72.30
38480;DHT22;62333;51.980;5.934;2022-12-18T15:56:21;2.10;72.30
38480;DHT22;62333;51.980;5.934;2022-12-18T15:59:18;2.10;72.40
38480;DHT22;62333;51.980;5.934;2022-12-18T16:01:48;2.10;72.30
38480;DHT22;62333;51.980;5.934;2022-12-18T16:04:16;2.00;72.50
38480;DHT22;62333;51.980;5.934;2022-12-18T16:06:43;2.00;72.60
38480;DHT22;62333;51.980;5.934;2022-12-18T16:09:09;2.00;72.60
38480;DHT22;62333;51.980;5.934;2022-12-18T16:11:36;2.00;72.60
38480;DHT22;62333;51.980;5.934;2022-12-18T16:14:22;2.00;72.70
38480;DHT22;62333;51.980;5.934;2022-12-18T16:16:50;2.00;72.70
38480;DHT22;62333;51.980;5.934;2022-12-18T16:19:16;2.00;72.80
38480;DHT22;62333;51.980;5.934;2022-12-18T16:21:42;2.00;72.90
38480;DHT22;62333;51.980;5.934;2022-12-18T16:24:22;2.00;73.00
38480;DHT22;62333;51.980;5.934;2022-12-18T16:26:49;2.00;73.10
38480;DHT22;62333;51.980;5.934;2022-12-18T16:29:16;2.00;73.10
38480;DHT22;62333;51.980;5.934;2022-12-18T16:31:42;2.10;73.10
38480;DHT22;62333;51.980;5.934;2022-12-18T16:34:24;2.10;72.80
38480;DHT22;62333;51.980;5.934;2022-12-18T16:37:05;2.00;72.60
38480;DHT22;62333;51.980;5.934;2022-12-18T16:39:36;2.00;72.50
38480;DHT22;62333;51.980;5.934;2022-12-18T16:42:16;2.00;72.60
38480;DHT22;62333;51.980;5.934;2022-12-18T16:44:45;2.00;72.60
38480;DHT22;62333;51.980;5.934;2022-12-18T16:47:12;2.10;72.70
38480;DHT22;62333;51.980;5.934;2022-12-18T16:49:38;2.00;72.40
38480;DHT22;62333;51.980;5.934;2022-12-18T16:52:05;1.90;72.30
38480;DHT22;62333;51.980;5.934;2022-12-18T16:54:30;1.90;72.40
38480;DHT22;62333;51.980;5.934;2022-12-18T16:56:58;1.90;72.50
38480;DHT22;62333;51.980;5.934;2022-12-18T16:59:25;1.90;72.60
38480;DHT22;62333;51.980;5.934;2022-12-18T17:01:51;1.90;72.80
38480;DHT22;62333;51.980;5.934;2022-12-18T17:04:17;1.90;72.80
38480;DHT22;62333;51.980;5.934;2022-12-18T17:06:44;1.80;72.90
38480;DHT22;62333;51.980;5.934;2022-12-18T17:09:12;1.80;73.00
38480;DHT22;62333;51.980;5.934;2022-12-18T17:11:42;1.90;73.10
38480;DHT22;62333;51.980;5.934;2022-12-18T17:14:10;1.90;73.20
38480;DHT22;62333;51.980;5.934;2022-12-18T17:16:36;1.90;73.30
38480;DHT22;62333;51.980;5.934;2022-12-18T17:19:03;1.80;73.20
38480;DHT22;62333;51.980;5.934;2022-12-18T17:21:29;1.90;73.30
38480;DHT22;62333;51.980;5.934;2022-12-18T17:23:55;1.90;73.50
38480;DHT22;62333;51.980;5.934;2022-12-18T17:26:23;1.90;73.50
38480;DHT22;62333;51.980;5.934;2022-12-18T17:28:49;1.90;73.50
38480;DHT22;62333;51.980;5.934;2022-12-18T17:31:22;1.80;73.50
38480;DHT22;62333;51.980;5.934;2022-12-18T17:33:48;1.80;73.60
38480;DHT22;62333;51.980;5.934;2022-12-18T17:36:15;1.80;73.60
38480;DHT22;62333;51.980;5.934;2022-12-18T17:38:41;1.80;73.70
38480;DHT22;62333;51.980;5.934;2022-12-18T17:41:08;1.80;73.70
38480;DHT22;62333;51.980;5.934;2022-12-18T17:43:34;1.80;73.90
38480;DHT22;62333;51.980;5.934;2022-12-18T17:46:02;1.80;74.00